Terminal Aerodrome Forecast
Issued by NWS

Home | Current Version | Previous Version | Text Only | Print | Product List | Glossary On
Versions: 1 2 3 4 5 6 7 8 9 10 11 12 13
977
FTUS43 KMPX 251746
TAFRWF
TAF
KRWF 251746Z 2518/2618 30010KT P6SM SCT060
     FM252100 26011KT P6SM BKN060
     FM260000 22010KT P6SM OVC090
     FM261200 26010KT P6SM OVC150
     FM261600 28011KT P6SM SCT150=

USA.gov is the U.S. government's official web portal to all federal, state and local government web resources and services.